createdAt,value
2022-12-29T00:01:03.127Z,1.80
2022-12-29T00:03:31.437Z,2.40
2022-12-29T00:06:01.946Z,2.50
2022-12-29T00:08:40.800Z,1.53
2022-12-29T00:11:10.311Z,1.50
2022-12-29T00:14:04.808Z,2.77
2022-12-29T00:16:33.606Z,1.50
2022-12-29T00:19:02.466Z,2.07
2022-12-29T00:21:49.119Z,2.20
2022-12-29T00:24:37.462Z,2.80
2022-12-29T00:27:31.829Z,1.80
2022-12-29T00:30:18.043Z,2.00
2022-12-29T00:33:03.713Z,2.10
2022-12-29T00:35:34.154Z,2.07
2022-12-29T00:38:24.609Z,2.70
2022-12-29T00:41:10.192Z,1.73
2022-12-29T00:43:56.010Z,1.53
2022-12-29T00:46:24.260Z,1.70
2022-12-29T00:49:09.637Z,1.60
2022-12-29T00:51:37.745Z,1.80
2022-12-29T00:54:07.351Z,1.63
2022-12-29T00:56:35.461Z,1.73
2022-12-29T00:59:04.705Z,1.90
2022-12-29T01:01:33.315Z,1.43
2022-12-29T01:04:04.040Z,1.50
2022-12-29T01:06:33.287Z,1.40
2022-12-29T01:09:18.724Z,1.53
2022-12-29T01:11:48.117Z,1.40
2022-12-29T01:14:16.491Z,1.50
2022-12-29T01:16:46.549Z,1.43
2022-12-29T01:19:15.201Z,2.00
2022-12-29T01:21:43.618Z,1.70
2022-12-29T01:24:11.991Z,1.63
2022-12-29T01:26:40.472Z,1.93
2022-12-29T01:29:10.144Z,2.30
2022-12-29T01:31:38.611Z,2.40
2022-12-29T01:34:06.997Z,1.40
2022-12-29T01:36:35.941Z,1.50
2022-12-29T01:39:04.213Z,1.60
2022-12-29T01:41:32.514Z,1.77
2022-12-29T01:44:02.733Z,1.73
2022-12-29T01:46:35.377Z,1.27
2022-12-29T01:49:13.262Z,1.47
2022-12-29T01:51:46.343Z,1.50
2022-12-29T01:54:19.770Z,1.20
2022-12-29T01:56:49.427Z,2.03
2022-12-29T01:59:22.339Z,2.23
2022-12-29T02:01:52.530Z,1.33
2022-12-29T02:04:20.865Z,2.60
2022-12-29T02:06:54.705Z,1.20
2022-12-29T02:09:22.928Z,1.13
2022-12-29T02:11:51.147Z,1.43
2022-12-29T02:14:19.248Z,1.40
2022-12-29T02:17:04.382Z,2.00
2022-12-29T02:20:16.257Z,1.27
2022-12-29T02:22:53.736Z,1.33
2022-12-29T02:25:55.951Z,1.30
2022-12-29T02:28:56.757Z,1.43
2022-12-29T02:31:32.902Z,1.40
2022-12-29T02:34:12.633Z,2.33
2022-12-29T02:36:49.153Z,1.20
2022-12-29T02:39:25.357Z,2.00
2022-12-29T02:42:04.451Z,1.83
2022-12-29T02:44:43.216Z,1.10
2022-12-29T02:47:18.511Z,1.23
2022-12-29T02:49:50.367Z,5.17
2022-12-29T02:52:21.442Z,1.20
2022-12-29T02:54:50.380Z,1.43
2022-12-29T02:57:31.412Z,1.33
2022-12-29T03:00:03.791Z,1.47
2022-12-29T03:03:17.897Z,1.20
2022-12-29T03:06:07.421Z,1.53
2022-12-29T03:08:46.346Z,1.20
2022-12-29T03:11:30.053Z,1.70
2022-12-29T03:14:20.028Z,2.63
2022-12-29T03:16:51.931Z,1.50
2022-12-29T03:19:25.498Z,1.80
2022-12-29T03:22:15.715Z,2.10
2022-12-29T03:24:48.798Z,1.50
2022-12-29T03:27:21.111Z,1.23
2022-12-29T03:29:55.297Z,1.10
2022-12-29T03:32:25.944Z,1.10
2022-12-29T03:34:56.791Z,1.20
2022-12-29T03:37:28.927Z,2.63
2022-12-29T03:39:57.595Z,2.10
2022-12-29T03:42:30.205Z,1.20
2022-12-29T03:44:59.054Z,1.37
2022-12-29T03:47:27.455Z,1.23
2022-12-29T03:49:56.947Z,1.43
2022-12-29T03:52:25.058Z,5.37
2022-12-29T03:54:53.165Z,2.53
2022-12-29T03:57:21.255Z,1.53
2022-12-29T03:59:49.545Z,1.63
2022-12-29T04:02:17.898Z,1.80
2022-12-29T04:04:46.592Z,1.70
2022-12-29T04:07:16.112Z,1.97
2022-12-29T04:09:44.184Z,1.43
2022-12-29T04:12:12.291Z,1.57
2022-12-29T04:14:40.350Z,1.40
2022-12-29T04:17:08.776Z,2.03
2022-12-29T04:19:36.982Z,2.73
2022-12-29T04:22:05.171Z,1.73
2022-12-29T04:24:34.715Z,4.10
2022-12-29T04:27:02.821Z,1.40
2022-12-29T04:29:30.997Z,1.57
2022-12-29T04:31:59.093Z,1.30
2022-12-29T04:34:27.153Z,1.30
2022-12-29T04:36:55.305Z,1.43
2022-12-29T04:39:23.592Z,1.43
2022-12-29T04:41:53.037Z,2.90
2022-12-29T04:44:21.147Z,1.50
2022-12-29T04:46:49.323Z,1.93
2022-12-29T04:49:17.662Z,1.20
2022-12-29T04:51:46.479Z,1.33
2022-12-29T04:54:14.560Z,2.07
2022-12-29T04:56:42.673Z,1.70
2022-12-29T04:59:12.226Z,1.50
2022-12-29T05:01:40.458Z,2.07
2022-12-29T05:04:08.509Z,1.60
2022-12-29T05:06:36.537Z,1.50
2022-12-29T05:09:04.635Z,2.58
2022-12-29T05:11:32.842Z,2.80
2022-12-29T05:14:01.732Z,3.33
2022-12-29T05:16:31.403Z,1.80
2022-12-29T05:18:59.653Z,1.83
2022-12-29T05:21:27.832Z,1.93
2022-12-29T05:23:55.996Z,1.63
2022-12-29T05:26:24.347Z,1.57
2022-12-29T05:28:52.519Z,2.03
2022-12-29T05:31:20.772Z,1.93
2022-12-29T05:33:50.328Z,1.77
2022-12-29T05:36:18.582Z,2.13
2022-12-29T05:38:47.028Z,2.30
2022-12-29T05:41:15.277Z,2.10
2022-12-29T05:43:43.538Z,2.20
2022-12-29T05:46:11.669Z,1.70
2022-12-29T05:48:40.097Z,1.60
2022-12-29T05:51:09.568Z,2.63
2022-12-29T05:53:37.647Z,2.17
2022-12-29T05:56:06.002Z,1.70
2022-12-29T05:58:34.104Z,1.47
2022-12-29T06:01:02.214Z,1.63
2022-12-29T06:03:30.405Z,1.40
2022-12-29T06:05:58.922Z,1.60
2022-12-29T06:08:28.395Z,2.20
2022-12-29T06:10:56.538Z,2.03
2022-12-29T06:13:24.804Z,3.60
2022-12-29T06:15:53.241Z,1.50
2022-12-29T06:18:21.618Z,1.77
2022-12-29T06:20:49.832Z,2.30
2022-12-29T06:23:19.554Z,2.00
2022-12-29T06:25:50.271Z,2.50
2022-12-29T06:28:18.568Z,1.50
2022-12-29T06:30:47.091Z,2.30
2022-12-29T06:33:15.721Z,1.70
2022-12-29T06:35:44.503Z,1.50
2022-12-29T06:38:12.742Z,1.70
2022-12-29T06:40:42.261Z,1.80
2022-12-29T06:43:11.743Z,1.50
2022-12-29T06:45:41.025Z,1.40
2022-12-29T06:48:09.773Z,2.40
2022-12-29T06:50:38.245Z,1.53
2022-12-29T06:53:06.462Z,1.57
2022-12-29T06:55:34.653Z,1.50
2022-12-29T06:58:03.223Z,1.37
2022-12-29T07:00:32.729Z,1.47
2022-12-29T07:03:01.363Z,1.80
2022-12-29T07:05:32.412Z,3.83
2022-12-29T07:08:01.004Z,2.23
2022-12-29T07:10:29.401Z,1.70
2022-12-29T07:12:57.539Z,2.90
2022-12-29T07:15:25.653Z,1.57
2022-12-29T07:17:55.083Z,2.40
2022-12-29T07:20:26.785Z,2.20
2022-12-29T07:22:55.630Z,1.83
2022-12-29T07:25:24.188Z,2.03
2022-12-29T07:27:52.393Z,1.60
2022-12-29T07:30:20.576Z,1.50
2022-12-29T07:32:48.686Z,1.67
2022-12-29T07:35:18.369Z,1.60
2022-12-29T07:37:46.560Z,1.80
2022-12-29T07:40:14.917Z,1.77
2022-12-29T07:42:43.092Z,1.53
2022-12-29T07:45:11.969Z,3.53
2022-12-29T07:47:40.108Z,1.60
2022-12-29T07:50:08.915Z,3.63
2022-12-29T07:52:38.374Z,1.83
2022-12-29T07:55:07.467Z,2.03
2022-12-29T07:57:35.756Z,1.60
2022-12-29T08:00:05.056Z,1.63
2022-12-29T08:02:33.353Z,1.40
2022-12-29T08:05:02.154Z,1.97
2022-12-29T08:07:30.376Z,1.50
2022-12-29T08:10:00.069Z,2.60
2022-12-29T08:12:28.265Z,2.10
2022-12-29T08:14:56.439Z,2.10
2022-12-29T08:17:24.617Z,1.50
2022-12-29T08:19:52.770Z,2.00
2022-12-29T08:22:20.998Z,1.93
2022-12-29T08:24:49.208Z,1.53
2022-12-29T08:27:21.050Z,2.40
2022-12-29T08:29:49.695Z,2.03
2022-12-29T08:32:18.341Z,2.73
2022-12-29T08:34:46.928Z,1.60
2022-12-29T08:37:15.065Z,1.87
2022-12-29T08:39:43.161Z,2.90
2022-12-29T08:42:11.387Z,2.17
2022-12-29T08:44:41.018Z,2.60
2022-12-29T08:47:09.295Z,2.23
2022-12-29T08:49:37.476Z,1.53
2022-12-29T08:52:06.075Z,1.60
2022-12-29T08:54:34.312Z,4.00
2022-12-29T08:57:02.637Z,1.63
2022-12-29T08:59:30.787Z,1.50
2022-12-29T09:02:01.384Z,2.17
2022-12-29T09:04:30.102Z,1.70
2022-12-29T09:06:58.350Z,1.60
2022-12-29T09:09:26.532Z,1.60
2022-12-29T09:11:54.654Z,2.13
2022-12-29T09:14:22.801Z,2.47
2022-12-29T09:17:10.614Z,2.30
2022-12-29T09:19:40.370Z,1.90
2022-12-29T09:22:08.933Z,1.50
2022-12-29T09:24:37.255Z,1.60
2022-12-29T09:27:05.340Z,3.70
2022-12-29T09:29:33.595Z,1.43
2022-12-29T09:32:02.252Z,1.50
2022-12-29T09:34:30.509Z,2.10
2022-12-29T09:36:59.968Z,1.63
2022-12-29T09:39:28.379Z,1.43
2022-12-29T09:42:06.785Z,1.40
2022-12-29T09:44:50.305Z,5.07
2022-12-29T09:47:20.164Z,8.60
2022-12-29T09:49:51.448Z,1.50
2022-12-29T09:52:26.680Z,3.60
2022-12-29T09:55:02.970Z,1.70
2022-12-29T09:57:39.301Z,2.57
2022-12-29T10:00:14.756Z,1.50
2022-12-29T10:02:46.100Z,1.70
2022-12-29T10:05:27.644Z,1.47
2022-12-29T10:08:11.302Z,4.50
2022-12-29T10:10:55.146Z,2.50
2022-12-29T10:13:36.695Z,1.40
2022-12-29T10:16:11.727Z,1.77
2022-12-29T10:19:16.560Z,1.50
2022-12-29T10:21:54.753Z,2.93
2022-12-29T10:24:24.471Z,1.50
2022-12-29T10:26:54.126Z,1.60
2022-12-29T10:29:26.429Z,1.60
2022-12-29T10:32:00.547Z,4.20
2022-12-29T10:34:33.393Z,3.90
2022-12-29T10:37:06.278Z,2.23
2022-12-29T10:39:42.837Z,1.60
2022-12-29T10:42:17.706Z,2.70
2022-12-29T10:44:46.010Z,2.20
2022-12-29T10:47:18.645Z,1.67
2022-12-29T10:49:49.638Z,1.97
2022-12-29T10:52:19.884Z,2.30
2022-12-29T10:54:54.777Z,1.40
2022-12-29T10:57:29.086Z,1.70
2022-12-29T10:59:57.577Z,2.00
2022-12-29T11:02:54.831Z,1.80
2022-12-29T11:05:27.665Z,3.43
2022-12-29T11:08:03.389Z,1.93
2022-12-29T11:10:40.745Z,2.97
2022-12-29T11:13:15.196Z,1.53
2022-12-29T11:15:45.106Z,2.27
2022-12-29T11:18:24.324Z,2.00
2022-12-29T11:20:55.081Z,2.80
2022-12-29T11:23:35.006Z,1.57
2022-12-29T11:26:17.146Z,2.87
2022-12-29T11:28:47.246Z,2.57
2022-12-29T11:31:19.422Z,2.13
2022-12-29T11:33:47.851Z,2.43
2022-12-29T11:36:19.193Z,3.53
2022-12-29T11:38:51.299Z,1.77
2022-12-29T11:41:26.201Z,2.00
2022-12-29T11:43:55.915Z,2.20
2022-12-29T11:46:28.543Z,1.60
2022-12-29T11:48:59.650Z,2.50
2022-12-29T11:51:30.605Z,1.50
2022-12-29T11:54:01.670Z,4.50
2022-12-29T11:56:41.277Z,1.30
2022-12-29T11:59:39.025Z,3.37
2022-12-29T12:02:43.719Z,1.60
2022-12-29T12:05:31.515Z,1.30
2022-12-29T12:08:05.233Z,1.20
2022-12-29T12:10:39.841Z,1.60
2022-12-29T12:13:20.896Z,1.60
2022-12-29T12:15:57.172Z,1.60
2022-12-29T12:18:34.607Z,1.60
2022-12-29T12:21:10.811Z,1.50
2022-12-29T12:23:49.380Z,1.70
2022-12-29T12:26:20.800Z,1.70
2022-12-29T12:28:56.444Z,1.90
2022-12-29T12:31:37.060Z,2.00
2022-12-29T12:34:12.939Z,4.47
2022-12-29T12:37:13.473Z,2.63
2022-12-29T12:39:51.754Z,2.20
2022-12-29T12:42:36.199Z,2.90
2022-12-29T12:45:37.242Z,2.33
2022-12-29T12:48:17.549Z,2.60
2022-12-29T12:50:54.232Z,2.67
2022-12-29T12:53:33.565Z,2.93
2022-12-29T12:56:24.615Z,2.27
2022-12-29T12:58:57.624Z,2.40
2022-12-29T13:01:40.135Z,2.90
2022-12-29T13:04:35.235Z,2.47
2022-12-29T13:07:16.634Z,2.20
2022-12-29T13:10:17.394Z,2.50
2022-12-29T13:12:52.220Z,2.30
2022-12-29T13:15:31.136Z,2.53
2022-12-29T13:18:07.607Z,1.90
2022-12-29T13:20:41.618Z,2.03
2022-12-29T13:23:16.544Z,1.90
2022-12-29T13:25:52.777Z,1.87
2022-12-29T13:28:28.000Z,2.23
2022-12-29T13:31:03.241Z,2.67
2022-12-29T13:33:44.147Z,2.00
2022-12-29T13:36:22.195Z,2.10
2022-12-29T13:38:54.085Z,2.30
2022-12-29T13:41:29.425Z,3.27
2022-12-29T13:43:59.484Z,2.63
2022-12-29T13:46:31.583Z,2.40
2022-12-29T13:49:04.442Z,1.87
2022-12-29T13:51:34.064Z,2.00
2022-12-29T13:54:16.911Z,2.30
2022-12-29T13:56:53.115Z,2.20
2022-12-29T13:59:28.909Z,2.80
2022-12-29T14:02:02.631Z,2.80
2022-12-29T14:04:34.238Z,2.23
2022-12-29T14:07:04.906Z,2.00
2022-12-29T14:09:48.365Z,2.70
2022-12-29T14:12:36.933Z,2.17
2022-12-29T14:15:17.499Z,2.47
2022-12-29T14:17:46.182Z,2.10
2022-12-29T14:20:24.594Z,2.43
2022-12-29T14:23:01.927Z,2.40
2022-12-29T14:26:02.891Z,2.17
2022-12-29T14:28:32.515Z,2.20
2022-12-29T14:31:02.373Z,1.80
2022-12-29T14:33:32.471Z,3.10
2022-12-29T14:36:22.557Z,2.60
2022-12-29T14:38:51.288Z,2.13
2022-12-29T14:41:34.955Z,2.23
2022-12-29T14:44:16.921Z,2.00
2022-12-29T14:46:49.433Z,2.13
2022-12-29T14:49:21.036Z,3.00
2022-12-29T14:51:50.939Z,2.47
2022-12-29T14:54:52.917Z,2.60
2022-12-29T14:57:30.558Z,3.43
2022-12-29T15:00:04.884Z,2.67
2022-12-29T15:02:39.348Z,2.20
2022-12-29T15:05:22.296Z,2.20
2022-12-29T15:07:52.335Z,2.63
2022-12-29T15:10:21.406Z,2.30
2022-12-29T15:12:55.007Z,2.20
2022-12-29T15:15:25.624Z,2.13
2022-12-29T15:17:54.066Z,3.20
2022-12-29T15:20:28.288Z,3.47
2022-12-29T15:22:59.697Z,2.53
2022-12-29T15:25:28.384Z,5.03
2022-12-29T15:28:01.471Z,1.80
2022-12-29T15:30:30.070Z,2.03
2022-12-29T15:32:58.562Z,2.03
2022-12-29T15:35:33.476Z,2.10
2022-12-29T15:38:14.654Z,1.70
2022-12-29T15:40:45.226Z,2.40
2022-12-29T15:43:25.594Z,2.33
2022-12-29T15:45:56.154Z,1.70
2022-12-29T15:48:27.381Z,2.23
2022-12-29T15:50:55.890Z,2.17
2022-12-29T15:53:29.547Z,2.33
2022-12-29T15:56:03.405Z,2.33
2022-12-29T15:58:33.043Z,2.63
2022-12-29T16:01:03.271Z,3.07
2022-12-29T16:03:36.181Z,2.47
2022-12-29T16:06:12.116Z,3.80
2022-12-29T16:08:42.462Z,2.20
2022-12-29T16:11:23.836Z,2.57
2022-12-29T16:13:54.343Z,2.77
2022-12-29T16:16:27.394Z,1.87
2022-12-29T16:18:58.293Z,2.63
2022-12-29T16:21:29.941Z,1.63
2022-12-29T16:24:03.778Z,1.67
2022-12-29T16:26:32.035Z,1.73
2022-12-29T16:29:02.458Z,1.90
2022-12-29T16:31:36.541Z,1.83
2022-12-29T16:34:23.520Z,2.63
2022-12-29T16:36:57.701Z,2.20
2022-12-29T16:39:33.531Z,2.43
2022-12-29T16:42:02.072Z,2.70
2022-12-29T16:44:31.518Z,2.60
2022-12-29T16:47:05.816Z,2.40
2022-12-29T16:49:36.336Z,2.47
2022-12-29T16:52:15.108Z,3.00
2022-12-29T16:54:49.688Z,6.00
2022-12-29T16:57:24.597Z,6.20
2022-12-29T16:59:56.288Z,7.33
2022-12-29T17:02:27.923Z,4.27
2022-12-29T17:04:56.127Z,3.83
2022-12-29T17:07:25.984Z,2.90
2022-12-29T17:09:55.917Z,3.40
2022-12-29T17:12:26.807Z,3.73
2022-12-29T17:14:56.681Z,2.83
2022-12-29T17:17:33.571Z,5.13
2022-12-29T17:20:05.378Z,3.50
2022-12-29T17:22:33.928Z,3.50
2022-12-29T17:25:04.063Z,5.13
2022-12-29T17:27:37.149Z,4.23
2022-12-29T17:30:11.256Z,4.47
2022-12-29T17:32:39.631Z,4.80
2022-12-29T17:35:14.482Z,6.10
2022-12-29T17:37:42.561Z,8.60
2022-12-29T17:40:18.007Z,7.80
2022-12-29T17:42:48.074Z,5.77
2022-12-29T17:45:18.696Z,6.30
2022-12-29T17:47:46.969Z,8.13
2022-12-29T17:50:17.230Z,5.60
2022-12-29T17:52:49.196Z,5.93
2022-12-29T17:55:21.534Z,5.13
2022-12-29T17:57:50.039Z,5.77
2022-12-29T18:00:20.244Z,6.93
2022-12-29T18:02:49.274Z,5.27
2022-12-29T18:05:21.324Z,5.40
2022-12-29T18:07:50.307Z,6.07
2022-12-29T18:10:19.901Z,6.27
2022-12-29T18:12:50.567Z,9.83
2022-12-29T18:15:21.946Z,9.90
2022-12-29T18:17:50.132Z,11.47
2022-12-29T18:20:18.207Z,9.30
2022-12-29T18:22:46.311Z,6.50
2022-12-29T18:25:23.621Z,4.53
2022-12-29T18:27:51.872Z,5.20
2022-12-29T18:30:20.383Z,3.23
2022-12-29T18:32:48.486Z,3.40
2022-12-29T18:35:26.068Z,9.20
2022-12-29T18:37:54.169Z,3.77
2022-12-29T18:40:23.817Z,3.60
2022-12-29T18:42:51.993Z,6.53
2022-12-29T18:45:21.873Z,3.30
2022-12-29T18:47:49.988Z,3.63
2022-12-29T18:50:18.941Z,2.80
2022-12-29T18:52:47.185Z,3.83
2022-12-29T18:55:16.997Z,2.90
2022-12-29T18:57:46.498Z,2.70
2022-12-29T19:00:16.726Z,2.17
2022-12-29T19:02:45.709Z,3.00
2022-12-29T19:05:22.679Z,3.13
2022-12-29T19:07:51.295Z,3.63
2022-12-29T19:10:20.537Z,3.70
2022-12-29T19:12:50.712Z,3.47
2022-12-29T19:15:24.270Z,3.57
2022-12-29T19:18:32.482Z,2.40
2022-12-29T19:20:43.037Z,2.67
2022-12-29T19:23:13.370Z,2.63
2022-12-29T19:25:41.977Z,2.03
2022-12-29T19:28:18.405Z,1.90
2022-12-29T19:30:51.685Z,2.27
2022-12-29T19:33:21.768Z,1.80
2022-12-29T19:35:50.526Z,2.07
2022-12-29T19:38:18.762Z,1.73
2022-12-29T19:40:50.388Z,1.90
2022-12-29T19:43:20.722Z,1.90
2022-12-29T19:45:48.902Z,1.70
2022-12-29T19:48:20.694Z,1.93
2022-12-29T19:50:48.824Z,3.03
2022-12-29T19:53:17.160Z,1.80
2022-12-29T19:55:46.095Z,3.10
2022-12-29T19:58:15.431Z,3.27
2022-12-29T20:00:45.350Z,2.03
2022-12-29T20:03:13.675Z,2.70
2022-12-29T20:05:42.868Z,1.80
2022-12-29T20:08:10.946Z,4.03
2022-12-29T20:10:39.097Z,1.60
2022-12-29T20:13:07.562Z,1.90
2022-12-29T20:15:35.767Z,2.00
2022-12-29T20:18:13.711Z,1.67
2022-12-29T20:20:43.098Z,1.67
2022-12-29T20:23:11.356Z,1.63
2022-12-29T20:25:53.868Z,1.73
2022-12-29T20:28:22.148Z,1.90
2022-12-29T20:31:00.212Z,1.70
2022-12-29T20:33:31.643Z,1.60
2022-12-29T20:36:07.281Z,1.63
2022-12-29T20:38:35.604Z,1.33
2022-12-29T20:41:03.849Z,1.80
2022-12-29T20:43:32.045Z,1.60
2022-12-29T20:46:00.762Z,2.50
2022-12-29T20:48:31.388Z,4.50
2022-12-29T20:51:00.514Z,1.57
2022-12-29T20:53:29.339Z,5.27
2022-12-29T20:56:02.851Z,1.90
2022-12-29T20:58:31.884Z,2.20
2022-12-29T21:01:03.215Z,1.73
2022-12-29T21:03:33.452Z,1.70
2022-12-29T21:06:01.846Z,1.67
2022-12-29T21:08:31.109Z,1.60
2022-12-29T21:10:59.577Z,1.50
2022-12-29T21:13:28.553Z,1.80
2022-12-29T21:15:57.955Z,1.87
2022-12-29T21:18:26.299Z,1.70
2022-12-29T21:21:00.794Z,1.57
2022-12-29T21:23:29.709Z,1.67
2022-12-29T21:25:58.120Z,1.70
2022-12-29T21:28:26.266Z,1.60
2022-12-29T21:30:54.864Z,1.40
2022-12-29T21:33:24.392Z,1.40
2022-12-29T21:35:52.522Z,1.50
2022-12-29T21:38:22.049Z,1.33
2022-12-29T21:40:50.236Z,1.30
2022-12-29T21:43:18.445Z,1.30
2022-12-29T21:45:49.965Z,1.20
2022-12-29T21:48:25.049Z,1.10
2022-12-29T21:51:12.568Z,1.10
2022-12-29T21:53:43.653Z,1.00
2022-12-29T21:56:13.746Z,1.27
2022-12-29T21:59:01.166Z,1.20
2022-12-29T22:01:49.011Z,1.10
2022-12-29T22:04:36.818Z,1.00
2022-12-29T22:07:23.130Z,1.03
2022-12-29T22:10:10.480Z,1.33
2022-12-29T22:12:56.167Z,1.10
2022-12-29T22:15:24.803Z,1.50
2022-12-29T22:17:54.308Z,1.17
2022-12-29T22:20:25.696Z,1.67
2022-12-29T22:22:54.042Z,1.00
2022-12-29T22:25:24.285Z,1.00
2022-12-29T22:27:58.928Z,1.00
2022-12-29T22:30:28.566Z,1.00
2022-12-29T22:32:58.470Z,1.00
2022-12-29T22:35:26.720Z,0.90
2022-12-29T22:37:55.094Z,1.07
2022-12-29T22:40:24.640Z,1.10
2022-12-29T22:42:52.926Z,1.00
2022-12-29T22:45:21.189Z,1.10
2022-12-29T22:47:49.450Z,1.00
2022-12-29T22:50:18.049Z,1.00
2022-12-29T22:52:46.290Z,1.03
2022-12-29T22:55:14.380Z,1.03
2022-12-29T22:57:43.803Z,1.00
2022-12-29T23:00:12.787Z,4.10
2022-12-29T23:02:41.026Z,0.90
2022-12-29T23:05:10.453Z,1.00
2022-12-29T23:07:38.898Z,1.00
2022-12-29T23:10:07.777Z,1.00
2022-12-29T23:12:35.815Z,0.90
2022-12-29T23:15:05.958Z,1.00
2022-12-29T23:17:34.289Z,1.20
2022-12-29T23:20:02.374Z,1.00
2022-12-29T23:22:30.433Z,0.90
2022-12-29T23:24:58.508Z,1.90
2022-12-29T23:27:26.555Z,1.00
2022-12-29T23:29:54.630Z,1.20
2022-12-29T23:32:24.062Z,1.10
2022-12-29T23:34:52.121Z,1.00
2022-12-29T23:37:20.292Z,1.30
2022-12-29T23:39:48.353Z,1.17
2022-12-29T23:42:16.393Z,1.00
2022-12-29T23:44:44.425Z,1.10
2022-12-29T23:47:13.607Z,1.03
2022-12-29T23:49:43.020Z,1.10
2022-12-29T23:52:11.691Z,1.10
2022-12-29T23:54:39.818Z,1.20
2022-12-29T23:57:07.859Z,1.10
2022-12-29T23:59:35.943Z,1.10
